Time;durP1;ratioP1;P1;durP2;ratioP2;P2;SDS_P1;SDS_P2;PMS_P1;PMS_P2;Temp;Humidity;BMP_temperature;BMP_pressure;BME280_temperature;BME280_humidity;BME280_pressure;Samples;Min_cycle;Max_cycle;Signal;HPM_P1;HPM_P2
2022/02/27 00:00:27;;;;;;;26.35;15.60;;;;;;;2.11;84.59;98755.61;1697979;84;21048;-76
2022/02/27 00:02:55;;;;;;;28.15;14.60;;;;;;;2.14;84.57;98753.06;1697816;84;21019;-77
2022/02/27 00:05:22;;;;;;;25.50;13.90;;;;;;;2.20;84.42;98750.98;1698250;84;21056;-77
2022/02/27 00:07:48;;;;;;;20.27;12.45;;;;;;;2.22;84.51;98756.69;1698972;84;21002;-77
2022/02/27 00:10:15;;;;;;;21.60;12.53;;;;;;;2.26;84.50;98753.69;1698125;84;21542;-77
2022/02/27 00:12:41;;;;;;;22.77;11.30;;;;;;;2.30;84.60;98761.15;1725190;82;21018;-77
2022/02/27 00:15:08;;;;;;;22.87;10.65;;;;;;;2.31;84.43;98755.95;1717082;83;21019;-77
2022/02/27 00:17:38;;;;;;;17.25;9.85;;;;;;;2.32;84.12;98755.53;1695637;84;21055;-77
2022/02/27 00:20:07;;;;;;;15.68;9.35;;;;;;;2.30;83.30;98750.27;1716985;83;21015;-77
2022/02/27 00:22:35;;;;;;;18.90;9.85;;;;;;;2.31;83.29;98756.36;1694869;84;21047;-77
2022/02/27 00:25:05;;;;;;;23.38;8.85;;;;;;;2.24;82.74;98753.66;1718970;83;20999;-77
2022/02/27 00:27:33;;;;;;;12.40;7.75;;;;;;;2.21;82.26;98744.89;1696112;84;21047;-77
2022/02/27 00:29:59;;;;;;;13.48;8.60;;;;;;;2.20;82.24;98746.61;1697010;83;21042;-76
2022/02/27 00:32:26;;;;;;;14.47;8.73;;;;;;;2.16;81.69;98749.17;1693909;84;21508;-77
2022/02/27 00:34:52;;;;;;;15.03;8.78;;;;;;;2.11;81.41;98756.50;1718394;83;21043;-77
2022/02/27 00:37:19;;;;;;;14.95;9.58;;;;;;;2.08;81.14;98745.98;1695297;84;21422;-77
2022/02/27 00:39:46;;;;;;;15.25;8.65;;;;;;;2.05;80.39;98748.56;1719900;83;21293;-77
2022/02/27 00:42:12;;;;;;;17.57;8.58;;;;;;;2.03;80.76;98744.16;1695526;84;21075;-77
2022/02/27 00:44:39;;;;;;;16.77;8.83;;;;;;;2.00;80.81;98755.86;1717910;83;20975;-77
2022/02/27 00:47:07;;;;;;;16.82;8.75;;;;;;;1.97;80.61;98747.55;1711325;83;21015;-76
2022/02/27 00:49:35;;;;;;;14.23;8.08;;;;;;;1.96;80.34;98745.34;1712211;82;21023;-77
2022/02/27 00:52:01;;;;;;;13.90;8.53;;;;;;;1.93;80.18;98749.23;1711905;83;21686;-77
2022/02/27 00:54:33;;;;;;;18.45;9.08;;;;;;;1.91;80.18;98744.83;1714294;83;21004;-77
2022/02/27 00:56:56;;;;;;;21.40;9.43;;;;;;;1.88;79.88;98745.66;1709071;84;21119;-76
2022/02/27 00:59:23;;;;;;;22.58;10.25;;;;;;;1.86;79.79;98744.73;1716713;83;21124;-77
2022/02/27 01:01:49;;;;;;;21.10;9.63;;;;;;;1.83;79.94;98739.02;1693826;84;21021;-77
2022/02/27 01:04:16;;;;;;;17.60;10.43;;;;;;;1.84;79.94;98738.61;1698642;84;21043;-77
2022/02/27 01:06:42;;;;;;;17.92;10.65;;;;;;;1.82;79.88;98740.30;1703218;84;21469;-77
2022/02/27 01:09:10;;;;;;;18.07;10.40;;;;;;;1.81;79.93;98745.08;1705940;83;21012;-77
2022/02/27 01:11:37;;;;;;;19.73;9.90;;;;;;;1.82;79.97;98751.65;1720984;82;21094;-77
2022/02/27 01:14:04;;;;;;;19.42;10.93;;;;;;;1.82;79.97;98747.73;1701350;84;21425;-77
2022/02/27 01:16:33;;;;;;;19.70;10.18;;;;;;;1.81;79.97;98743.36;1701113;84;21091;-77
2022/02/27 01:19:00;;;;;;;20.05;10.78;;;;;;;1.84;79.88;98742.53;1701246;84;20973;-77
2022/02/27 01:21:27;;;;;;;19.07;10.58;;;;;;;1.85;79.75;98752.13;1701258;84;21444;-77
2022/02/27 01:23:53;;;;;;;21.80;10.93;;;;;;;1.83;79.77;98746.01;1705551;83;20970;-77
2022/02/27 01:26:20;;;;;;;19.80;10.53;;;;;;;1.82;79.63;98745.53;1701254;84;21008;-77
2022/02/27 01:28:47;;;;;;;19.70;11.20;;;;;;;1.84;79.66;98743.84;1701347;84;21483;-77
2022/02/27 01:31:15;;;;;;;18.30;10.70;;;;;;;1.83;79.70;98746.01;1706337;83;21375;-77
2022/02/27 01:33:44;;;;;;;17.10;10.60;;;;;;;1.81;79.67;98742.47;1730376;83;21362;-77
2022/02/27 01:36:12;;;;;;;20.80;10.80;;;;;;;1.83;79.64;98740.78;1730134;83;21053;-77
2022/02/27 01:38:38;;;;;;;19.00;10.82;;;;;;;1.81;79.51;98743.77;1730419;83;21377;-77
2022/02/27 01:41:05;;;;;;;18.07;10.70;;;;;;;1.78;79.54;98747.66;1727137;83;21008;-76
2022/02/27 01:43:32;;;;;;;16.97;10.23;;;;;;;1.79;79.53;98752.89;1701284;84;20995;-77
2022/02/27 01:45:58;;;;;;;21.10;11.05;;;;;;;1.80;79.54;98751.17;1701280;84;21067;-76
2022/02/27 01:48:25;;;;;;;18.85;10.32;;;;;;;1.77;79.53;98745.45;1701460;84;21019;-76
2022/02/27 01:50:52;;;;;;;18.48;11.08;;;;;;;1.77;79.44;98749.38;1701232;84;21023;-77
2022/02/27 01:53:19;;;;;;;16.82;10.53;;;;;;;1.74;79.42;98748.01;1702929;83;21082;-77
2022/02/27 01:55:47;;;;;;;16.27;10.03;;;;;;;1.73;79.41;98746.70;1696324;83;21066;-76
2022/02/27 01:58:14;;;;;;;20.75;10.80;;;;;;;1.71;79.42;98746.22;1730126;83;21047;-76
2022/02/27 02:00:42;;;;;;;17.17;9.80;;;;;;;1.70;79.38;98752.30;1730347;83;21468;-75
2022/02/27 02:03:09;;;;;;;15.03;9.70;;;;;;;1.70;79.32;98752.30;1719896;83;20991;-75
2022/02/27 02:05:36;;;;;;;20.02;9.23;;;;;;;1.71;79.35;98746.66;1701052;84;21134;-75
2022/02/27 02:08:03;;;;;;;16.42;9.33;;;;;;;1.70;79.16;98743.16;1701260;84;21401;-75
2022/02/27 02:10:32;;;;;;;17.73;10.20;;;;;;;1.68;79.15;98742.27;1701167;84;21034;-75
2022/02/27 02:13:00;;;;;;;15.78;8.58;;;;;;;1.69;78.93;98736.17;1705249;84;21453;-75
2022/02/27 02:15:27;;;;;;;15.88;9.18;;;;;;;1.71;78.88;98738.83;1689758;84;21047;-76
2022/02/27 02:17:54;;;;;;;15.38;9.28;;;;;;;1.69;78.70;98743.13;1735430;83;21376;-76
2022/02/27 02:20:21;;;;;;;13.75;8.90;;;;;;;1.68;78.59;98736.14;1704416;84;21064;-76
2022/02/27 02:22:55;;;;;;;13.75;8.45;;;;;;;1.68;78.51;98742.27;1735419;83;20968;-76
2022/02/27 02:25:22;;;;;;;15.20;7.47;;;;;;;1.68;78.23;98745.29;1704420;84;21075;-76
2022/02/27 02:27:49;;;;;;;13.28;7.85;;;;;;;1.66;77.85;98741.33;1721442;83;20980;-76
2022/02/27 02:30:16;;;;;;;13.60;7.80;;;;;;;1.68;77.72;98742.67;1694473;84;21015;-76
2022/02/27 02:32:54;;;;;;;12.18;7.45;;;;;;;1.67;76.90;98748.31;1694371;84;20979;-76
2022/02/27 02:35:24;;;;;;;14.38;7.47;;;;;;;1.66;76.85;98748.31;1698531;83;21064;-76
2022/02/27 02:37:51;;;;;;;16.35;7.17;;;;;;;1.67;77.37;98749.63;1723476;83;21047;-76
2022/02/27 02:40:18;;;;;;;10.65;6.55;;;;;;;1.68;77.40;98750.10;1723320;83;20996;-76
2022/02/27 02:42:46;;;;;;;12.58;6.92;;;;;;;1.69;77.16;98753.58;1704510;84;21516;-76
2022/02/27 02:45:14;;;;;;;12.00;7.60;;;;;;;1.70;76.21;98751.00;1732960;83;21035;-76
2022/02/27 02:47:44;;;;;;;12.53;6.35;;;;;;;1.70;76.51;98752.30;1676186;86;22160;-76
2022/02/27 02:50:13;;;;;;;13.72;7.10;;;;;;;1.71;76.72;98761.89;1705661;84;21034;-76
2022/02/27 02:52:40;;;;;;;10.15;6.55;;;;;;;1.74;76.55;98761.52;1676539;86;21057;-76
2022/02/27 02:55:11;;;;;;;12.78;7.58;;;;;;;1.75;76.56;98748.90;1706098;84;21492;-76
2022/02/27 02:57:38;;;;;;;13.80;7.47;;;;;;;1.74;76.42;98754.54;1699659;83;20988;-76
2022/02/27 03:00:09;;;;;;;11.33;6.60;;;;;;;1.77;76.43;98757.22;1723492;83;20984;-76
2022/02/27 03:02:37;;;;;;;9.85;6.25;;;;;;;1.79;76.40;98758.11;1723485;83;21059;-76
2022/02/27 03:05:06;;;;;;;14.68;7.37;;;;;;;1.79;76.24;98761.17;1723534;83;20981;-76
2022/02/27 03:07:35;;;;;;;10.38;7.03;;;;;;;1.80;76.11;98761.63;1700300;83;21008;-75
2022/02/27 03:10:04;;;;;;;11.57;6.70;;;;;;;1.81;75.95;98762.97;1694595;85;21075;-75
2022/02/27 03:12:31;;;;;;;12.37;6.47;;;;;;;1.79;76.07;98765.95;1694655;83;21031;-75
2022/02/27 03:14:57;;;;;;;12.85;6.15;;;;;;;1.79;76.02;98765.09;1694564;85;21031;-76
2022/02/27 03:17:24;;;;;;;14.63;7.03;;;;;;;1.79;75.96;98770.32;1715588;83;21003;-76
2022/02/27 03:19:50;;;;;;;14.35;8.08;;;;;;;1.76;75.94;98770.25;1723578;83;21417;-76
2022/02/27 03:22:17;;;;;;;14.15;7.87;;;;;;;1.75;75.84;98774.62;1723355;83;21020;-76
2022/02/27 03:24:44;;;;;;;13.55;7.40;;;;;;;1.74;75.67;98769.36;1723241;83;21028;-76
2022/02/27 03:27:11;;;;;;;17.12;7.83;;;;;;;1.72;75.65;98769.33;1704748;84;20969;-75
2022/02/27 03:29:37;;;;;;;14.20;7.75;;;;;;;1.73;75.56;98774.14;1709702;83;21444;-75
2022/02/27 03:32:06;;;;;;;13.75;7.47;;;;;;;1.69;75.49;98772.77;1676307;86;21067;-77
2022/02/27 03:34:32;;;;;;;14.23;7.47;;;;;;;1.67;75.54;98767.91;1706115;84;21015;-75
2022/02/27 03:36:59;;;;;;;13.15;7.33;;;;;;;1.68;75.37;98780.16;1689117;84;20996;-75
2022/02/27 03:39:25;;;;;;;13.95;7.20;;;;;;;1.66;75.26;98779.22;1735221;83;21046;-75
2022/02/27 03:41:52;;;;;;;18.27;9.25;;;;;;;1.64;75.10;98772.20;1704504;84;21052;-75
2022/02/27 03:44:19;;;;;;;17.77;10.55;;;;;;;1.65;75.36;98780.08;1735211;83;21381;-75
2022/02/27 03:46:45;;;;;;;18.77;10.70;;;;;;;1.64;75.12;98774.82;1703003;84;20977;-75
2022/02/27 03:49:12;;;;;;;22.75;11.63;;;;;;;1.63;75.28;98761.31;1735325;83;21408;-76
2022/02/27 03:51:39;;;;;;;25.72;13.08;;;;;;;1.62;75.10;98766.09;1704558;84;20960;-75
2022/02/27 03:54:05;;;;;;;23.30;12.90;;;;;;;1.58;75.18;98761.23;1735482;83;20991;-76
2022/02/27 03:56:32;;;;;;;23.30;13.15;;;;;;;1.56;75.28;98762.51;1704581;84;21047;-75
2022/02/27 03:58:59;;;;;;;22.62;11.83;;;;;;;1.55;75.13;98763.78;1724498;83;21026;-75
2022/02/27 04:01:25;;;;;;;17.30;9.08;;;;;;;1.50;75.10;98762.37;1676354;86;21004;-75
2022/02/27 04:03:52;;;;;;;14.20;7.67;;;;;;;1.44;74.86;98759.23;1705964;84;21007;-75
2022/02/27 04:06:19;;;;;;;14.80;7.85;;;;;;;1.43;74.84;98760.50;1676358;86;20996;-75
2022/02/27 04:08:45;;;;;;;18.57;8.23;;;;;;;1.34;74.22;98756.40;1706181;83;21413;-75
2022/02/27 04:11:12;;;;;;;15.15;8.03;;;;;;;1.27;74.40;98759.31;1687299;84;21026;-75
2022/02/27 04:13:38;;;;;;;29.63;14.40;;;;;;;1.24;74.38;98761.88;1712987;83;21051;-75
2022/02/27 04:16:05;;;;;;;47.40;20.12;;;;;;;1.15;74.12;98754.30;1706183;84;21031;-75
2022/02/27 04:18:31;;;;;;;13.45;7.15;;;;;;;1.05;74.05;98757.13;1683207;85;21079;-75
2022/02/27 04:20:57;;;;;;;15.70;7.33;;;;;;;0.97;74.14;98756.52;1706133;84;20992;-75
2022/02/27 04:23:24;;;;;;;18.55;7.42;;;;;;;0.88;74.30;98767.20;1712977;84;21422;-75
2022/02/27 04:25:50;;;;;;;11.90;6.22;;;;;;;0.79;74.26;98763.98;1712712;84;21023;-75
2022/02/27 04:28:17;;;;;;;13.70;5.72;;;;;;;0.74;74.33;98763.00;1682902;85;21067;-75
2022/02/27 04:30:43;;;;;;;12.58;6.60;;;;;;;0.67;74.30;98753.70;1712756;84;20980;-75
2022/02/27 04:33:10;;;;;;;8.88;5.87;;;;;;;0.60;74.29;98762.70;1682702;85;21032;-75
2022/02/27 04:35:37;;;;;;;12.95;6.03;;;;;;;0.52;74.24;98762.52;1713048;84;21083;-75
2022/02/27 04:38:03;;;;;;;10.88;5.85;;;;;;;0.41;74.21;98753.55;1706149;84;21413;-76
2022/02/27 04:40:33;;;;;;;12.05;6.20;;;;;;;0.33;74.37;98763.80;1713274;84;21020;-75
2022/02/27 04:42:58;;;;;;;13.93;6.65;;;;;;;0.28;74.49;98771.94;1683020;85;21425;-75
2022/02/27 04:45:24;;;;;;;10.70;6.65;;;;;;;0.20;74.57;98774.36;1705678;84;21027;-76
2022/02/27 04:47:51;;;;;;;14.47;7.35;;;;;;;0.15;74.63;98770.76;1712916;84;20992;-76
2022/02/27 04:50:17;;;;;;;11.73;6.75;;;;;;;0.09;74.64;98770.61;1682329;84;21036;-76
2022/02/27 04:52:44;;;;;;;12.43;7.28;;;;;;;0.03;74.73;98770.47;1704359;84;21492;-76
2022/02/27 04:55:11;;;;;;;14.55;7.83;;;;;;;-0.06;74.64;98772.39;1674805;86;21039;-75
2022/02/27 04:57:37;;;;;;;15.78;7.83;;;;;;;-0.17;74.97;98768.23;1704703;84;21038;-75
2022/02/27 05:00:07;;;;;;;15.38;9.03;;;;;;;-0.24;75.00;98771.09;1679582;85;21490;-75
2022/02/27 05:02:34;;;;;;;17.50;8.40;;;;;;;-0.34;75.13;98763.44;1712802;84;21043;-75
2022/02/27 05:05:01;;;;;;;16.00;7.90;;;;;;;-0.43;75.56;98775.80;1682674;85;21059;-76
2022/02/27 05:07:28;;;;;;;18.62;8.25;;;;;;;-0.47;76.01;98776.96;1712617;84;21015;-75
2022/02/27 05:09:54;;;;;;;14.95;8.35;;;;;;;-0.47;76.18;98776.55;1682705;85;21058;-75
2022/02/27 05:12:21;;;;;;;13.78;7.60;;;;;;;-0.48;76.08;98777.81;1710395;83;21086;-75
2022/02/27 05:14:47;;;;;;;15.08;7.92;;;;;;;-0.52;76.27;98779.45;1720365;83;21072;-75
2022/02/27 05:17:13;;;;;;;16.48;7.87;;;;;;;-0.52;76.41;98778.56;1672407;86;22284;-75
2022/02/27 05:19:40;;;;;;;13.90;8.13;;;;;;;-0.56;76.47;98782.40;1706266;84;21053;-75
2022/02/27 05:22:06;;;;;;;14.80;8.25;;;;;;;-0.62;76.50;98782.64;1720752;83;20985;-75
2022/02/27 05:24:33;;;;;;;12.40;7.78;;;;;;;-0.60;76.70;98780.95;1674625;84;21060;-76
2022/02/27 05:27:00;;;;;;;14.53;8.18;;;;;;;-0.60;76.88;98792.67;1706154;84;21403;-76
2022/02/27 05:29:26;;;;;;;15.20;7.90;;;;;;;-0.62;77.02;98787.41;1706118;84;20991;-76
2022/02/27 05:31:52;;;;;;;16.48;7.70;;;;;;;-0.62;77.13;98793.06;1690435;84;21040;-76
2022/02/27 05:34:19;;;;;;;18.52;8.73;;;;;;;-0.64;77.15;98796.91;1735265;83;21413;-76
2022/02/27 05:36:45;;;;;;;14.05;8.48;;;;;;;-0.62;77.22;98804.34;1735062;83;21010;-76
2022/02/27 05:39:13;;;;;;;12.05;7.25;;;;;;;-0.59;77.66;98807.45;1734435;83;21011;-76
2022/02/27 05:41:42;;;;;;;15.30;8.43;;;;;;;-0.58;77.75;98807.94;1694619;83;21401;-76
2022/02/27 05:44:09;;;;;;;16.35;9.10;;;;;;;-0.56;77.99;98812.75;1735233;82;20986;-76
2022/02/27 05:46:36;;;;;;;13.88;8.48;;;;;;;-0.52;77.63;98812.41;1735353;83;21472;-76
2022/02/27 05:49:02;;;;;;;17.52;8.65;;;;;;;-0.48;77.65;98816.88;1735036;83;21058;-75
2022/02/27 05:51:29;;;;;;;15.50;8.73;;;;;;;-0.43;77.77;98819.18;1706323;81;20999;-76
2022/02/27 05:53:55;;;;;;;19.60;9.50;;;;;;;-0.33;77.76;98826.41;1676372;86;21016;-76
2022/02/27 05:56:22;;;;;;;16.73;9.00;;;;;;;-0.24;77.86;98823.60;1705925;84;21042;-76
2022/02/27 05:58:51;;;;;;;20.08;10.55;;;;;;;-0.16;77.65;98830.77;1676292;86;21004;-76
2022/02/27 06:01:18;;;;;;;21.55;9.38;;;;;;;-0.06;77.58;98831.92;1706676;83;21000;-76
2022/02/27 06:03:46;;;;;;;22.48;10.03;;;;;;;0.04;77.50;98834.33;1676044;85;21015;-76
2022/02/27 06:06:12;;;;;;;18.87;9.58;;;;;;;0.13;77.54;98841.09;1705989;84;20992;-76
2022/02/27 06:08:39;;;;;;;17.77;9.43;;;;;;;0.26;77.42;98840.13;1705724;84;21016;-76
2022/02/27 06:11:05;;;;;;;17.77;9.30;;;;;;;0.35;77.49;98845.98;1703929;84;21437;-76
2022/02/27 06:13:32;;;;;;;19.40;10.58;;;;;;;0.43;77.33;98847.47;1708491;84;21027;-76
2022/02/27 06:15:58;;;;;;;18.95;10.55;;;;;;;0.50;77.21;98845.05;1709483;84;21077;-77
2022/02/27 06:18:24;;;;;;;22.95;10.88;;;;;;;0.59;77.28;98860.48;1709487;84;21052;-76
2022/02/27 06:20:51;;;;;;;21.90;9.98;;;;;;;0.66;77.29;98864.98;1709729;84;21024;-76
2022/02/27 06:23:17;;;;;;;22.85;10.85;;;;;;;0.74;77.16;98871.28;1722251;83;21446;-76
2022/02/27 06:25:44;;;;;;;19.48;9.40;;;;;;;0.83;77.05;98865.84;1704522;84;21000;-77
2022/02/27 06:28:10;;;;;;;21.55;9.78;;;;;;;0.90;77.01;98871.64;1730297;83;21412;-77
2022/02/27 06:30:37;;;;;;;23.87;9.80;;;;;;;0.98;76.85;98870.52;1730135;83;21020;-76
2022/02/27 06:33:03;;;;;;;22.60;9.88;;;;;;;1.05;76.70;98879.83;1730592;83;21376;-77
2022/02/27 06:35:30;;;;;;;18.77;9.45;;;;;;;1.14;76.66;98881.79;1730345;83;21004;-76
2022/02/27 06:37:56;;;;;;;18.57;9.40;;;;;;;1.25;76.33;98879.84;1734780;82;21027;-76
2022/02/27 06:40:24;;;;;;;16.25;9.03;;;;;;;1.31;76.29;98886.50;1739883;82;21046;-76
2022/02/27 06:42:50;;;;;;;15.20;8.05;;;;;;;1.38;76.23;98888.41;1732656;83;20960;-76
2022/02/27 06:45:18;;;;;;;13.95;7.95;;;;;;;1.47;75.43;98887.72;1739734;82;21074;-76
2022/02/27 06:47:45;;;;;;;13.05;7.58;;;;;;;1.57;75.39;98900.54;1732656;83;21000;-76
2022/02/27 06:50:12;;;;;;;15.30;8.20;;;;;;;1.62;74.90;98897.59;1738461;82;21047;-76
2022/02/27 06:52:40;;;;;;;16.32;8.48;;;;;;;1.68;74.71;98900.36;1709659;84;21471;-76
2022/02/27 06:55:07;;;;;;;14.07;8.63;;;;;;;1.74;73.98;98896.11;1709765;84;21043;-76
2022/02/27 06:57:34;;;;;;;17.17;9.33;;;;;;;1.78;73.73;98896.19;1678675;85;21055;-76
2022/02/27 07:00:01;;;;;;;18.92;10.05;;;;;;;1.79;73.61;98900.56;1705844;84;21003;-76
2022/02/27 07:02:27;;;;;;;16.67;9.25;;;;;;;1.79;72.97;98894.47;1706584;83;21034;-76
2022/02/27 07:04:53;;;;;;;15.05;8.20;;;;;;;1.78;71.52;98907.95;1705942;84;20968;-77
2022/02/27 07:07:20;;;;;;;17.10;8.98;;;;;;;1.73;71.99;98909.59;1705778;84;20975;-76
2022/02/27 07:09:46;;;;;;;16.42;8.33;;;;;;;1.76;72.65;98893.09;1705905;84;21460;-76
2022/02/27 07:12:13;;;;;;;15.13;8.23;;;;;;;1.75;71.68;98895.25;1705567;84;20983;-76
2022/02/27 07:14:42;;;;;;;15.90;7.83;;;;;;;1.80;72.25;98902.77;1693611;84;21004;-77
2022/02/27 07:17:09;;;;;;;14.47;7.62;;;;;;;1.86;72.48;98907.25;1730540;83;20976;-75
2022/02/27 07:19:36;;;;;;;11.35;6.55;;;;;;;1.89;71.30;98901.64;1730440;83;20986;-75
2022/02/27 07:22:05;;;;;;;17.37;6.17;;;;;;;1.90;69.71;98894.66;1730335;83;20987;-75
2022/02/27 07:24:35;;;;;;;13.10;6.47;;;;;;;1.94;70.02;98903.92;1704653;84;21000;-75
2022/02/27 07:27:03;;;;;;;13.68;6.33;;;;;;;2.02;70.53;98905.38;1711390;83;21493;-75
2022/02/27 07:29:30;;;;;;;14.87;7.35;;;;;;;2.10;71.34;98908.14;1676403;86;21465;-75
2022/02/27 07:31:56;;;;;;;13.93;5.75;;;;;;;2.18;70.79;98910.48;1701523;84;21071;-74
2022/02/27 07:34:23;;;;;;;15.60;6.25;;;;;;;2.27;70.57;98911.49;1701406;84;21003;-75
2022/02/27 07:36:51;;;;;;;14.63;6.03;;;;;;;2.34;70.65;98912.97;1701227;84;21415;-75
2022/02/27 07:39:19;;;;;;;17.42;6.45;;;;;;;2.45;69.88;98907.05;1699833;84;21008;-75
2022/02/27 07:41:46;;;;;;;10.90;5.58;;;;;;;2.45;67.56;98911.83;1730254;83;20971;-75
2022/02/27 07:44:14;;;;;;;17.87;5.10;;;;;;;2.50;68.80;98908.02;1730471;83;21026;-75
2022/02/27 07:46:41;;;;;;;11.57;4.55;;;;;;;2.55;67.46;98910.28;1717999;83;21002;-75
2022/02/27 07:49:08;;;;;;;15.98;5.47;;;;;;;2.59;67.36;98901.63;1676167;86;21059;-76
2022/02/27 07:51:34;;;;;;;11.53;4.97;;;;;;;2.66;68.28;98914.41;1701298;84;21034;-76
2022/02/27 07:54:02;;;;;;;9.73;5.37;;;;;;;2.74;68.33;98900.12;1676487;86;20996;-76
2022/02/27 07:56:29;;;;;;;11.93;6.15;;;;;;;2.77;65.76;98898.44;1703017;83;21060;-76
2022/02/27 07:58:56;;;;;;;12.98;5.22;;;;;;;2.80;66.37;98896.30;1676547;86;21020;-76
2022/02/27 08:01:24;;;;;;;10.95;4.92;;;;;;;2.83;67.16;98902.87;1701431;84;21047;-76
2022/02/27 08:03:51;;;;;;;10.45;4.97;;;;;;;2.86;66.51;98902.08;1676256;86;21420;-76
2022/02/27 08:06:17;;;;;;;9.08;4.95;;;;;;;2.85;67.29;98903.80;1707468;83;21003;-76
2022/02/27 08:08:43;;;;;;;10.23;5.35;;;;;;;2.84;67.02;98894.60;1676440;86;21068;-75
2022/02/27 08:11:11;;;;;;;13.98;5.53;;;;;;;2.81;66.58;98892.81;1701290;84;20963;-75
2022/02/27 08:13:38;;;;;;;19.92;6.05;;;;;;;2.80;65.17;98896.30;1665900;85;21059;-76
2022/02/27 08:16:05;;;;;;;15.40;6.53;;;;;;;2.83;66.73;98888.92;1707892;84;21007;-76
2022/02/27 08:18:34;;;;;;;14.10;5.92;;;;;;;2.84;66.60;98891.57;1733036;83;21126;-75
2022/02/27 08:21:01;;;;;;;9.78;5.53;;;;;;;2.87;66.58;98886.81;1712871;84;20968;-75
2022/02/27 08:23:27;;;;;;;19.30;6.25;;;;;;;2.90;66.52;98884.22;1712725;83;21035;-75
2022/02/27 08:25:54;;;;;;;11.43;5.53;;;;;;;2.93;65.68;98880.35;1733306;83;20976;-75
2022/02/27 08:28:22;;;;;;;10.13;4.58;;;;;;;2.96;65.09;98879.52;1686441;84;22181;-76
2022/02/27 08:30:49;;;;;;;8.20;3.98;;;;;;;2.97;65.04;98875.62;1684253;85;21441;-75
2022/02/27 08:33:16;;;;;;;11.83;4.33;;;;;;;3.00;64.45;98876.09;1704068;84;21493;-76
2022/02/27 08:35:42;;;;;;;12.15;4.60;;;;;;;3.03;64.45;98869.57;1674204;86;21047;-75
2022/02/27 08:38:09;;;;;;;9.65;4.37;;;;;;;3.03;63.02;98864.33;1703753;84;21416;-75
2022/02/27 08:40:35;;;;;;;7.67;4.30;;;;;;;3.07;62.96;98870.52;1699631;84;21056;-75
2022/02/27 08:43:02;;;;;;;8.58;4.37;;;;;;;3.11;63.53;98863.17;1732934;83;21019;-75
2022/02/27 08:45:29;;;;;;;10.70;4.92;;;;;;;3.16;63.59;98865.42;1712660;84;21020;-75
2022/02/27 08:47:56;;;;;;;8.08;4.50;;;;;;;3.19;63.07;98864.58;1712770;84;21584;-75
2022/02/27 08:50:23;;;;;;;12.37;5.25;;;;;;;3.23;63.00;98865.05;1726629;83;21043;-75
2022/02/27 08:52:50;;;;;;;8.78;3.95;;;;;;;3.26;63.53;98871.23;1678637;84;21481;-76
2022/02/27 08:55:18;;;;;;;9.63;4.15;;;;;;;3.34;62.50;98861.28;1703427;84;21150;-75
2022/02/27 08:57:46;;;;;;;8.03;4.08;;;;;;;3.36;62.05;98860.44;1674086;86;21032;-76
2022/02/27 09:00:16;;;;;;;6.42;3.83;;;;;;;3.42;62.86;98857.03;1704397;83;20998;-76
2022/02/27 09:02:44;;;;;;;8.95;3.67;;;;;;;3.49;60.70;98854.93;1684180;85;21427;-77
2022/02/27 09:05:11;;;;;;;8.70;4.37;;;;;;;3.58;61.65;98856.81;1733107;83;20948;-77
2022/02/27 09:07:38;;;;;;;9.08;3.58;;;;;;;3.67;59.87;98853.41;1702257;84;21044;-77
2022/02/27 09:10:08;;;;;;;6.22;3.45;;;;;;;3.73;61.17;98853.93;1733358;83;21416;-77
2022/02/27 09:12:36;;;;;;;6.12;4.22;;;;;;;3.76;60.51;98850.01;1693082;84;21072;-77
2022/02/27 09:15:03;;;;;;;6.60;3.60;;;;;;;3.76;61.04;98852.22;1722303;83;21019;-75
2022/02/27 09:17:29;;;;;;;7.03;3.62;;;;;;;3.80;61.46;98854.02;1734975;83;20983;-75
2022/02/27 09:19:56;;;;;;;10.63;3.92;;;;;;;3.82;59.10;98849.66;1735191;83;21508;-75
2022/02/27 09:22:22;;;;;;;7.12;3.80;;;;;;;3.91;60.77;98846.70;1728787;83;21014;-75
2022/02/27 09:24:49;;;;;;;6.87;3.52;;;;;;;3.97;61.44;98834.95;1706237;84;20983;-75
2022/02/27 09:27:15;;;;;;;7.20;3.92;;;;;;;4.00;59.59;98836.31;1705959;84;21011;-75
2022/02/27 09:29:42;;;;;;;5.70;3.40;;;;;;;4.06;58.69;98838.09;1706054;84;20999;-75
2022/02/27 09:32:09;;;;;;;5.60;3.55;;;;;;;4.16;59.58;98832.08;1706030;84;21460;-74
2022/02/27 09:34:35;;;;;;;6.35;3.10;;;;;;;4.18;59.03;98830.36;1713925;83;21056;-75
2022/02/27 09:37:02;;;;;;;5.42;3.10;;;;;;;4.22;56.88;98829.95;1735338;83;21038;-77
2022/02/27 09:39:30;;;;;;;6.03;3.30;;;;;;;4.27;58.02;98830.88;1710553;83;21393;-74
2022/02/27 09:41:58;;;;;;;6.70;3.95;;;;;;;4.31;57.92;98831.36;1735062;83;21031;-76
2022/02/27 09:44:30;;;;;;;6.22;3.22;;;;;;;4.37;57.17;98833.17;1735396;83;21086;-76
2022/02/27 09:46:56;;;;;;;6.47;2.83;;;;;;;4.51;56.83;98828.45;1703984;84;21051;-75
2022/02/27 09:49:23;;;;;;;5.37;2.90;;;;;;;4.62;56.38;98826.81;1706002;84;20999;-76
2022/02/27 09:51:50;;;;;;;5.75;2.77;;;;;;;4.74;55.07;98828.20;1706090;84;21428;-76
2022/02/27 09:54:17;;;;;;;7.97;3.30;;;;;;;4.88;53.99;98825.70;1705892;84;21002;-75
2022/02/27 09:56:44;;;;;;;4.40;2.85;;;;;;;5.02;56.46;98827.51;1724737;81;21408;-76
2022/02/27 09:59:10;;;;;;;4.95;3.08;;;;;;;5.12;52.99;98825.38;1720399;83;20977;-75
2022/02/27 10:02:02;;;;;;;8.60;3.15;;;;;;;5.27;52.19;98821.08;1658460;85;21014;-75
2022/02/27 10:04:39;;;;;;;8.45;3.35;;;;;;;5.33;52.32;98825.08;1706078;84;21055;-76
2022/02/27 10:07:15;;;;;;;6.55;3.05;;;;;;;5.44;54.50;98827.73;1730229;83;20979;-76
2022/02/27 10:09:43;;;;;;;6.80;3.83;;;;;;;5.51;53.88;98819.02;1706750;83;21054;-76
2022/02/27 10:12:18;;;;;;;5.72;3.58;;;;;;;5.62;54.35;98816.45;1716473;83;21027;-75
2022/02/27 10:15:05;;;;;;;6.12;3.40;;;;;;;5.71;53.56;98815.59;1709083;83;21441;-75
2022/02/27 10:17:37;;;;;;;8.23;3.47;;;;;;;5.79;52.96;98810.35;1735272;81;21330;-76
2022/02/27 10:20:23;;;;;;;5.80;3.37;;;;;;;5.79;51.14;98803.34;1709155;83;21023;-76
2022/02/27 10:22:55;;;;;;;9.05;3.90;;;;;;;5.80;52.72;98804.20;1721175;82;20960;-78
2022/02/27 10:25:28;;;;;;;4.92;3.05;;;;;;;5.94;50.57;98812.16;1734213;82;20980;-74
2022/02/27 10:28:02;;;;;;;5.97;2.67;;;;;;;5.98;49.47;98809.95;1736993;82;21043;-74
2022/02/27 10:30:38;;;;;;;6.28;3.47;;;;;;;6.09;51.18;98804.75;1675998;86;21446;-75
2022/02/27 10:33:08;;;;;;;7.37;2.75;;;;;;;6.14;51.02;98802.14;1676277;86;21095;-75
2022/02/27 10:35:48;;;;;;;8.08;3.42;;;;;;;6.04;47.86;98794.23;1683210;84;21035;-76
2022/02/27 10:38:19;;;;;;;7.08;3.30;;;;;;;6.03;51.11;98789.81;1732310;83;22334;-75
2022/02/27 10:40:49;;;;;;;6.83;2.85;;;;;;;6.02;51.27;98789.80;1730365;83;21024;-75
2022/02/27 10:43:18;;;;;;;4.58;2.72;;;;;;;6.04;49.80;98785.02;1723221;83;21007;-75
2022/02/27 10:46:02;;;;;;;6.60;2.83;;;;;;;6.18;49.77;98780.19;1762575;81;21012;-75
2022/02/27 10:48:31;;;;;;;5.22;2.70;;;;;;;6.29;48.97;98771.88;1745647;81;21000;-75
2022/02/27 10:51:13;;;;;;;3.75;2.35;;;;;;;6.55;48.80;98776.68;1708041;84;21047;-76
2022/02/27 10:53:46;;;;;;;5.53;2.65;;;;;;;7.08;47.91;98775.28;1706891;84;21095;-75
2022/02/27 10:56:16;;;;;;;5.42;2.42;;;;;;;7.31;45.97;98774.34;1707996;84;21255;-75
2022/02/27 10:58:47;;;;;;;5.17;2.80;;;;;;;7.23;48.49;98775.23;1707875;84;20966;-75
2022/02/27 11:01:22;;;;;;;5.97;3.25;;;;;;;7.44;47.81;98769.46;1700715;84;21028;-74
2022/02/27 11:03:52;;;;;;;4.85;2.65;;;;;;;8.10;46.14;98759.37;1678808;85;21072;-75
2022/02/27 11:06:19;;;;;;;4.28;2.12;;;;;;;7.78;42.51;98760.02;1713759;83;21003;-75
2022/02/27 11:08:47;;;;;;;3.85;2.52;;;;;;;7.58;44.72;98760.16;1739656;82;20994;-75
2022/02/27 11:11:15;;;;;;;6.40;2.67;;;;;;;7.58;46.18;98756.63;1732419;83;20987;-75
2022/02/27 11:13:46;;;;;;;6.20;3.00;;;;;;;8.99;44.56;98748.06;1741182;81;21052;-75
2022/02/27 11:16:14;;;;;;;4.53;2.95;;;;;;;10.66;43.02;98741.31;1726396;83;21044;-78
2022/02/27 11:18:42;;;;;;;4.33;2.67;;;;;;;11.86;44.33;98726.95;1731065;82;21002;-78
2022/02/27 11:21:10;;;;;;;6.72;2.77;;;;;;;12.39;35.33;98718.20;1743511;81;21035;-79
2022/02/27 11:23:40;;;;;;;4.22;2.80;;;;;;;13.65;36.77;98711.22;1684625;85;21023;-79
2022/02/27 11:26:07;;;;;;;6.55;2.52;;;;;;;13.40;38.18;98706.59;1725584;83;21457;-79
2022/02/27 11:28:36;;;;;;;9.55;2.80;;;;;;;12.39;35.04;98711.56;1733457;82;20986;-79
2022/02/27 11:31:05;;;;;;;6.62;3.17;;;;;;;11.88;38.65;98711.84;1727620;82;21393;-79
2022/02/27 11:33:32;;;;;;;6.50;2.72;;;;;;;11.30;34.64;98710.05;1728956;82;21435;-78
2022/02/27 11:36:01;;;;;;;5.50;3.87;;;;;;;10.48;35.87;98699.22;1730373;83;21445;-77